createdAt,value
2023-05-14T00:01:49.915Z,10.17
2023-05-14T00:04:18.037Z,9.13
2023-05-14T00:06:45.940Z,9.83
2023-05-14T00:09:13.296Z,8.90
2023-05-14T00:11:40.643Z,8.93
2023-05-14T00:14:07.974Z,8.27
2023-05-14T00:16:35.438Z,7.80
2023-05-14T00:19:02.812Z,9.23
2023-05-14T00:21:30.031Z,8.17
2023-05-14T00:23:57.269Z,8.57
2023-05-14T00:26:24.461Z,8.50
2023-05-14T00:28:51.700Z,8.83
2023-05-14T00:31:18.984Z,8.77
2023-05-14T00:33:46.289Z,8.03
2023-05-14T00:36:13.586Z,8.33
2023-05-14T00:38:40.947Z,8.47
2023-05-14T00:41:08.545Z,8.13
2023-05-14T00:43:35.967Z,7.73
2023-05-14T00:46:06.020Z,8.03
2023-05-14T00:48:34.102Z,9.17
2023-05-14T00:51:01.706Z,8.87
2023-05-14T00:53:29.842Z,7.63
2023-05-14T00:55:57.374Z,8.20
2023-05-14T00:58:25.213Z,8.10
2023-05-14T01:00:52.709Z,8.30
2023-05-14T01:03:20.107Z,8.53
2023-05-14T01:06:01.015Z,7.93
2023-05-14T01:08:33.410Z,7.70
2023-05-14T01:11:23.988Z,8.37
2023-05-14T01:14:00.401Z,7.40
2023-05-14T01:16:28.194Z,8.90
2023-05-14T01:18:56.194Z,9.50
2023-05-14T01:21:32.689Z,8.53
2023-05-14T01:23:59.961Z,8.53
2023-05-14T01:26:27.295Z,9.23
2023-05-14T01:28:57.040Z,8.37
2023-05-14T01:31:28.672Z,8.30
2023-05-14T01:33:58.403Z,8.43
2023-05-14T01:36:25.958Z,8.30
2023-05-14T01:38:53.506Z,8.47
2023-05-14T01:41:21.904Z,7.83
2023-05-14T01:43:49.332Z,8.17
2023-05-14T01:46:19.425Z,8.33
2023-05-14T01:48:46.862Z,9.13
2023-05-14T01:51:14.697Z,8.07
2023-05-14T01:53:42.267Z,7.87
2023-05-14T01:56:09.573Z,8.50
2023-05-14T01:58:37.222Z,8.53
2023-05-14T02:01:04.553Z,8.40
2023-05-14T02:03:32.148Z,9.20
2023-05-14T02:05:59.490Z,8.37
2023-05-14T02:08:28.067Z,8.57
2023-05-14T02:10:55.310Z,7.87
2023-05-14T02:13:26.103Z,7.83
2023-05-14T02:15:53.557Z,8.77
2023-05-14T02:18:20.829Z,9.03
2023-05-14T02:20:48.711Z,8.90
2023-05-14T02:23:15.896Z,8.70
2023-05-14T02:25:43.284Z,9.40
2023-05-14T02:28:10.548Z,8.93
2023-05-14T02:30:38.997Z,8.30
2023-05-14T02:33:06.435Z,8.77
2023-05-14T02:35:33.766Z,8.13
2023-05-14T02:38:02.213Z,8.30
2023-05-14T02:40:36.849Z,8.10
2023-05-14T02:43:04.309Z,8.73
2023-05-14T02:45:31.518Z,7.83
2023-05-14T02:48:00.947Z,8.63
2023-05-14T02:50:28.254Z,7.70
2023-05-14T02:52:55.492Z,7.90
2023-05-14T02:55:22.830Z,8.93
2023-05-14T02:57:50.141Z,8.30
2023-05-14T03:00:17.524Z,8.43
2023-05-14T03:02:45.420Z,8.10
2023-05-14T03:05:13.263Z,7.63
2023-05-14T03:07:40.537Z,7.93
2023-05-14T03:10:09.116Z,7.93
2023-05-14T03:12:36.419Z,8.97
2023-05-14T03:15:04.034Z,8.47
2023-05-14T03:17:33.490Z,8.57
2023-05-14T03:20:00.748Z,8.20
2023-05-14T03:22:28.039Z,8.40
2023-05-14T03:24:55.240Z,8.63
2023-05-14T03:27:22.504Z,8.03
2023-05-14T03:29:49.724Z,8.33
2023-05-14T03:32:16.920Z,8.47
2023-05-14T03:34:44.826Z,8.33
2023-05-14T03:37:12.477Z,8.50
2023-05-14T03:39:39.700Z,8.33
2023-05-14T03:42:06.949Z,8.47
2023-05-14T03:44:35.774Z,9.33
2023-05-14T03:47:04.250Z,8.07
2023-05-14T03:49:31.843Z,9.23
2023-05-14T03:51:59.400Z,8.77
2023-05-14T03:54:26.990Z,7.70
2023-05-14T03:56:54.235Z,8.13
2023-05-14T03:59:21.750Z,8.30
2023-05-14T04:01:49.120Z,8.03
2023-05-14T04:04:16.469Z,9.03
2023-05-14T04:06:43.794Z,8.40
2023-05-14T04:09:11.099Z,9.00
2023-05-14T04:11:38.368Z,8.47
2023-05-14T04:14:07.113Z,8.37
2023-05-14T04:16:35.206Z,7.97
2023-05-14T04:19:05.641Z,8.50
2023-05-14T04:21:33.144Z,8.10
2023-05-14T04:24:00.421Z,7.80
2023-05-14T04:26:27.658Z,8.10
2023-05-14T04:28:54.980Z,8.27
2023-05-14T04:31:23.106Z,7.67
2023-05-14T04:33:50.647Z,8.33
2023-05-14T04:36:18.844Z,8.77
2023-05-14T04:38:46.476Z,8.20
2023-05-14T04:41:14.318Z,7.87
2023-05-14T04:43:41.754Z,8.30
2023-05-14T04:46:09.540Z,8.10
2023-05-14T04:48:37.073Z,8.60
2023-05-14T04:51:07.123Z,7.63
2023-05-14T04:53:34.659Z,32.73
2023-05-14T04:56:01.887Z,10.07
2023-05-14T04:58:33.858Z,8.40
2023-05-14T05:01:02.825Z,7.40
2023-05-14T05:03:33.973Z,8.03
2023-05-14T05:06:06.246Z,7.57
2023-05-14T05:08:35.947Z,7.30
2023-05-14T05:11:03.273Z,7.33
2023-05-14T05:13:30.504Z,7.17
2023-05-14T05:15:57.744Z,6.80
2023-05-14T05:18:25.170Z,7.03
2023-05-14T05:20:54.882Z,7.97
2023-05-14T05:23:22.126Z,7.50
2023-05-14T05:25:52.124Z,7.27
2023-05-14T05:28:19.359Z,6.30
2023-05-14T05:30:46.589Z,6.57
2023-05-14T05:33:13.930Z,6.43
2023-05-14T05:35:41.914Z,6.17
2023-05-14T05:38:09.193Z,6.20
2023-05-14T05:40:36.378Z,5.87
2023-05-14T05:43:03.666Z,6.47
2023-05-14T05:45:31.082Z,5.87
2023-05-14T05:47:58.338Z,5.90
2023-05-14T05:50:27.097Z,6.40
2023-05-14T05:52:54.384Z,6.37
2023-05-14T05:55:21.788Z,6.33
2023-05-14T05:57:58.055Z,6.67
2023-05-14T06:00:33.381Z,5.67
2023-05-14T06:03:03.047Z,7.20
2023-05-14T06:05:30.331Z,17.67
2023-05-14T06:08:04.423Z,6.43
2023-05-14T06:10:35.105Z,5.93
2023-05-14T06:13:03.652Z,6.00
2023-05-14T06:15:37.455Z,6.40
2023-05-14T06:18:10.001Z,6.60
2023-05-14T06:20:37.357Z,6.47
2023-05-14T06:23:06.085Z,6.80
2023-05-14T06:25:42.995Z,5.97
2023-05-14T06:28:10.275Z,6.20
2023-05-14T06:30:37.511Z,6.40
2023-05-14T06:33:04.903Z,6.17
2023-05-14T06:35:32.903Z,6.63
2023-05-14T06:38:02.596Z,5.90
2023-05-14T06:40:34.331Z,6.00
2023-05-14T06:43:01.533Z,5.43
2023-05-14T06:45:28.780Z,5.33
2023-05-14T06:47:56.165Z,5.80
2023-05-14T06:50:23.770Z,5.63
2023-05-14T06:52:51.237Z,5.40
2023-05-14T06:55:18.501Z,5.70
2023-05-14T06:57:45.818Z,5.07
2023-05-14T07:00:14.433Z,4.93
2023-05-14T07:02:41.642Z,4.93
2023-05-14T07:05:09.325Z,5.17
2023-05-14T07:07:36.608Z,4.47
2023-05-14T07:10:04.345Z,4.60
2023-05-14T07:12:31.576Z,4.77
2023-05-14T07:14:58.851Z,4.90
2023-05-14T07:17:26.427Z,5.07
2023-05-14T07:19:55.865Z,4.83
2023-05-14T07:22:23.373Z,4.43
2023-05-14T07:24:50.614Z,4.10
2023-05-14T07:27:21.772Z,4.60
2023-05-14T07:29:50.164Z,4.93
2023-05-14T07:32:19.795Z,5.10
2023-05-14T07:34:47.270Z,4.30
2023-05-14T07:37:14.588Z,4.60
2023-05-14T07:39:42.046Z,4.20
2023-05-14T07:42:09.586Z,4.40
2023-05-14T07:44:36.866Z,4.23
2023-05-14T07:47:04.521Z,5.20
2023-05-14T07:49:31.809Z,6.00
2023-05-14T07:51:59.422Z,4.27
2023-05-14T07:54:26.608Z,4.13
2023-05-14T07:56:53.928Z,4.40
2023-05-14T07:59:21.439Z,4.10
2023-05-14T08:01:48.718Z,4.80
2023-05-14T08:04:16.415Z,3.93
2023-05-14T08:06:43.716Z,4.03
2023-05-14T08:09:11.043Z,3.50
2023-05-14T08:11:39.192Z,3.23
2023-05-14T08:14:06.769Z,3.57
2023-05-14T08:16:34.067Z,3.50
2023-05-14T08:19:01.473Z,3.90
2023-05-14T08:21:28.750Z,3.80
2023-05-14T08:23:55.977Z,4.03
2023-05-14T08:26:23.247Z,3.90
2023-05-14T08:28:50.497Z,3.40
2023-05-14T08:31:17.803Z,3.40
2023-05-14T08:33:45.210Z,4.00
2023-05-14T08:36:12.448Z,3.50
2023-05-14T08:38:42.521Z,4.03
2023-05-14T08:41:11.651Z,3.43
2023-05-14T08:43:49.104Z,3.87
2023-05-14T08:46:18.142Z,3.80
2023-05-14T08:48:48.846Z,4.13
2023-05-14T08:51:16.161Z,4.80
2023-05-14T08:53:43.571Z,3.97
2023-05-14T08:56:12.784Z,4.30
2023-05-14T08:58:40.099Z,4.03
2023-05-14T09:01:07.703Z,4.50
2023-05-14T09:03:35.984Z,3.70
2023-05-14T09:06:03.699Z,3.97
2023-05-14T09:08:31.017Z,3.17
2023-05-14T09:10:58.462Z,3.07
2023-05-14T09:13:28.072Z,3.20
2023-05-14T09:15:55.859Z,3.13
2023-05-14T09:18:23.166Z,2.80
2023-05-14T09:20:52.022Z,3.10
2023-05-14T09:23:19.468Z,3.73
2023-05-14T09:25:48.816Z,3.00
2023-05-14T09:28:18.929Z,3.67
2023-05-14T09:30:52.234Z,3.93
2023-05-14T09:33:29.915Z,3.67
2023-05-14T09:36:03.781Z,3.30
2023-05-14T09:38:31.628Z,4.10
2023-05-14T09:40:59.644Z,3.43
2023-05-14T09:43:27.237Z,3.40
2023-05-14T09:45:54.617Z,3.40
2023-05-14T09:48:22.893Z,3.40
2023-05-14T09:50:51.564Z,3.33
2023-05-14T09:53:19.033Z,3.60
2023-05-14T09:55:46.394Z,3.73
2023-05-14T09:58:16.938Z,3.80
2023-05-14T10:00:47.971Z,3.70
2023-05-14T10:03:18.739Z,3.33
2023-05-14T10:05:49.473Z,4.00
2023-05-14T10:08:24.453Z,3.97
2023-05-14T10:10:52.546Z,3.40
2023-05-14T10:13:21.499Z,3.10
2023-05-14T10:15:52.096Z,3.23
2023-05-14T10:18:20.548Z,3.90
2023-05-14T10:20:49.832Z,3.20
2023-05-14T10:23:17.369Z,3.10
2023-05-14T10:25:44.974Z,3.50
2023-05-14T10:28:12.479Z,2.90
2023-05-14T10:30:50.047Z,3.57
2023-05-14T10:33:18.794Z,3.20
2023-05-14T10:36:02.202Z,3.20
2023-05-14T10:38:30.402Z,3.00
2023-05-14T10:40:59.576Z,3.03
2023-05-14T10:43:31.138Z,3.13
2023-05-14T10:45:59.543Z,3.10
2023-05-14T10:48:27.087Z,3.00
2023-05-14T10:50:54.756Z,3.20
2023-05-14T10:53:31.093Z,3.20
2023-05-14T10:55:58.845Z,3.13
2023-05-14T10:58:26.184Z,3.33
2023-05-14T11:00:55.734Z,2.53
2023-05-14T11:03:23.095Z,3.10
2023-05-14T11:05:51.338Z,3.20
2023-05-14T11:08:19.443Z,3.03
2023-05-14T11:10:47.128Z,3.40
2023-05-14T11:13:16.310Z,2.90
2023-05-14T11:15:48.084Z,3.20
2023-05-14T11:18:26.784Z,3.10
2023-05-14T11:20:54.840Z,2.80
2023-05-14T11:23:25.081Z,3.13
2023-05-14T11:25:54.252Z,3.00
2023-05-14T11:28:25.103Z,3.20
2023-05-14T11:30:52.842Z,3.00
2023-05-14T11:33:20.513Z,2.93
2023-05-14T11:35:48.658Z,3.20
2023-05-14T11:38:17.022Z,3.10
2023-05-14T11:40:53.047Z,2.80
2023-05-14T11:43:20.697Z,3.23
2023-05-14T11:45:57.248Z,2.93
2023-05-14T11:48:24.894Z,3.30
2023-05-14T11:50:53.081Z,3.03
2023-05-14T11:53:20.875Z,2.90
2023-05-14T11:55:48.360Z,3.20
2023-05-14T11:58:17.013Z,3.27
2023-05-14T12:00:45.568Z,3.00
2023-05-14T12:03:13.171Z,3.20
2023-05-14T12:05:40.753Z,2.97
2023-05-14T12:08:21.427Z,2.77
2023-05-14T12:10:48.836Z,3.03
2023-05-14T12:13:17.520Z,3.03
2023-05-14T12:15:58.090Z,3.07
2023-05-14T12:18:26.083Z,2.90
2023-05-14T12:20:53.485Z,2.80
2023-05-14T12:23:30.920Z,2.90
2023-05-14T12:26:10.855Z,3.00
2023-05-14T12:28:43.517Z,3.07
2023-05-14T12:31:11.133Z,2.73
2023-05-14T12:33:38.437Z,2.60
2023-05-14T12:36:20.428Z,2.70
2023-05-14T12:38:49.381Z,2.80
2023-05-14T12:41:17.721Z,2.63
2023-05-14T12:43:45.629Z,2.60
2023-05-14T12:46:13.130Z,2.77
2023-05-14T12:48:40.816Z,3.03
2023-05-14T12:51:08.403Z,2.73
2023-05-14T12:53:35.991Z,2.77
2023-05-14T12:56:03.282Z,2.90
2023-05-14T12:58:30.539Z,3.00
2023-05-14T13:00:57.862Z,3.00
2023-05-14T13:03:28.265Z,2.43
2023-05-14T13:05:55.728Z,2.80
2023-05-14T13:08:26.216Z,2.37
2023-05-14T13:10:54.452Z,2.80
2023-05-14T13:13:22.405Z,2.90
2023-05-14T13:15:50.204Z,2.93
2023-05-14T13:18:18.428Z,3.10
2023-05-14T13:20:47.220Z,2.80
2023-05-14T13:23:14.937Z,2.80
2023-05-14T13:25:42.539Z,2.83
2023-05-14T13:28:10.217Z,3.00
2023-05-14T13:30:37.497Z,3.27
2023-05-14T13:33:04.934Z,2.90
2023-05-14T13:35:32.389Z,3.07
2023-05-14T13:38:00.089Z,3.00
2023-05-14T13:40:27.330Z,2.87
2023-05-14T13:42:54.872Z,3.50
2023-05-14T13:45:22.250Z,2.90
2023-05-14T13:47:51.510Z,3.27
2023-05-14T13:50:19.354Z,2.97
2023-05-14T13:52:46.619Z,3.40
2023-05-14T13:55:14.143Z,3.27
2023-05-14T13:57:43.150Z,2.93
2023-05-14T14:00:11.454Z,2.83
2023-05-14T14:02:38.721Z,2.87
2023-05-14T14:05:06.536Z,2.80
2023-05-14T14:07:34.026Z,2.80
2023-05-14T14:10:02.316Z,3.20
2023-05-14T14:12:29.706Z,3.17
2023-05-14T14:14:57.053Z,3.20
2023-05-14T14:17:24.315Z,2.97
2023-05-14T14:19:51.709Z,2.70
2023-05-14T14:22:18.993Z,3.10
2023-05-14T14:24:46.329Z,3.03
2023-05-14T14:27:13.525Z,3.17
2023-05-14T14:29:40.942Z,3.60
2023-05-14T14:32:08.222Z,3.20
2023-05-14T14:34:35.578Z,2.87
2023-05-14T14:37:02.874Z,2.70
2023-05-14T14:39:30.413Z,2.90
2023-05-14T14:41:57.738Z,2.67
2023-05-14T14:44:25.095Z,3.13
2023-05-14T14:46:52.339Z,3.37
2023-05-14T14:49:19.775Z,3.13
2023-05-14T14:51:47.076Z,2.90
2023-05-14T14:54:14.469Z,2.80
2023-05-14T14:56:43.069Z,3.03
2023-05-14T14:59:10.284Z,3.23
2023-05-14T15:01:37.608Z,2.67
2023-05-14T15:04:05.009Z,3.20
2023-05-14T15:06:32.235Z,2.70
2023-05-14T15:08:59.732Z,2.80
2023-05-14T15:11:27.138Z,2.73
2023-05-14T15:13:54.434Z,2.90
2023-05-14T15:16:21.695Z,2.77
2023-05-14T15:18:49.051Z,2.80
2023-05-14T15:21:16.375Z,2.90
2023-05-14T15:23:43.618Z,3.17
2023-05-14T15:26:11.205Z,3.20
2023-05-14T15:28:38.560Z,3.37
2023-05-14T15:31:06.965Z,2.50
2023-05-14T15:33:34.377Z,2.87
2023-05-14T15:36:02.118Z,3.13
2023-05-14T15:38:29.397Z,3.40
2023-05-14T15:40:57.060Z,3.43
2023-05-14T15:43:25.026Z,2.83
2023-05-14T15:45:52.437Z,3.20
2023-05-14T15:48:21.210Z,3.07
2023-05-14T15:50:49.677Z,3.17
2023-05-14T15:53:17.228Z,3.27
2023-05-14T15:55:44.976Z,3.23
2023-05-14T15:58:12.964Z,3.33
2023-05-14T16:00:40.973Z,3.60
2023-05-14T16:03:08.340Z,3.10
2023-05-14T16:05:36.920Z,3.83
2023-05-14T16:08:04.231Z,3.27
2023-05-14T16:10:31.783Z,3.07
2023-05-14T16:12:59.406Z,3.70
2023-05-14T16:15:26.717Z,3.47
2023-05-14T16:17:54.010Z,3.30
2023-05-14T16:20:29.579Z,2.80
2023-05-14T16:22:56.849Z,1.90
2023-05-14T16:25:24.210Z,2.00
2023-05-14T16:27:51.596Z,2.43
2023-05-14T16:30:18.868Z,2.33
2023-05-14T16:32:49.406Z,2.30
2023-05-14T16:35:17.082Z,2.60
2023-05-14T16:37:46.823Z,2.40
2023-05-14T16:40:16.011Z,2.30
2023-05-14T16:42:43.248Z,2.63
2023-05-14T16:45:10.686Z,3.00
2023-05-14T16:47:37.995Z,2.97
2023-05-14T16:50:05.877Z,3.37
2023-05-14T16:52:33.235Z,2.70
2023-05-14T16:55:00.610Z,2.60
2023-05-14T16:57:27.914Z,2.57
2023-05-14T16:59:55.294Z,2.50
2023-05-14T17:02:22.815Z,2.50
2023-05-14T17:04:54.777Z,2.30
2023-05-14T17:07:22.126Z,2.60
2023-05-14T17:09:49.400Z,2.40
2023-05-14T17:12:16.757Z,2.37
2023-05-14T17:14:44.060Z,2.20
2023-05-14T17:17:11.405Z,2.43
2023-05-14T17:19:38.925Z,2.40
2023-05-14T17:22:07.411Z,2.63
2023-05-14T17:24:36.442Z,2.50
2023-05-14T17:27:03.913Z,2.93
2023-05-14T17:29:31.220Z,2.50
2023-05-14T17:31:58.917Z,2.70
2023-05-14T17:34:26.800Z,2.70
2023-05-14T17:37:00.971Z,3.13
2023-05-14T17:39:29.036Z,2.90
2023-05-14T17:41:56.302Z,3.30
2023-05-14T17:44:23.609Z,2.80
2023-05-14T17:46:53.354Z,3.87
2023-05-14T17:49:20.786Z,3.57
2023-05-14T17:51:48.027Z,2.80
2023-05-14T17:54:15.380Z,3.40
2023-05-14T17:56:42.882Z,3.50
2023-05-14T17:59:10.217Z,3.43
2023-05-14T18:01:37.495Z,3.73
2023-05-14T18:04:05.036Z,3.23
2023-05-14T18:06:32.345Z,3.57
2023-05-14T18:08:59.582Z,3.80
2023-05-14T18:11:32.769Z,4.20
2023-05-14T18:14:02.857Z,3.50
2023-05-14T18:16:30.367Z,3.90
2023-05-14T18:18:57.737Z,3.90
2023-05-14T18:21:25.007Z,3.97
2023-05-14T18:23:52.229Z,3.70
2023-05-14T18:26:19.462Z,3.70
2023-05-14T18:28:46.680Z,3.80
2023-05-14T18:31:23.058Z,3.80
2023-05-14T18:33:57.521Z,3.77
2023-05-14T18:36:24.837Z,3.73
2023-05-14T18:38:52.527Z,3.70
2023-05-14T18:41:19.801Z,3.93
2023-05-14T18:43:47.040Z,3.80
2023-05-14T18:46:14.481Z,3.80
2023-05-14T18:48:41.790Z,4.10
2023-05-14T18:51:11.157Z,3.50
2023-05-14T18:53:38.866Z,3.57
2023-05-14T18:56:06.130Z,3.20
2023-05-14T18:58:33.353Z,3.20
2023-05-14T19:01:00.910Z,3.17
2023-05-14T19:03:28.378Z,3.10
2023-05-14T19:05:55.925Z,3.20
2023-05-14T19:08:23.898Z,2.90
2023-05-14T19:10:51.316Z,2.73
2023-05-14T19:13:18.739Z,3.10
2023-05-14T19:15:46.153Z,2.90
2023-05-14T19:18:13.863Z,2.50
2023-05-14T19:20:42.234Z,2.50
2023-05-14T19:23:09.495Z,3.00
2023-05-14T19:25:36.743Z,2.40
2023-05-14T19:28:04.882Z,2.70
2023-05-14T19:30:33.919Z,2.90
2023-05-14T19:33:01.166Z,2.50
2023-05-14T19:35:30.179Z,2.37
2023-05-14T19:37:57.404Z,2.33
2023-05-14T19:40:24.776Z,2.57
2023-05-14T19:42:52.115Z,2.20
2023-05-14T19:45:19.502Z,2.23
2023-05-14T19:47:46.830Z,2.73
2023-05-14T19:50:14.831Z,2.40
2023-05-14T19:52:42.417Z,2.60
2023-05-14T19:55:09.994Z,18.20
2023-05-14T19:57:39.056Z,8.03
2023-05-14T20:00:08.868Z,3.30
2023-05-14T20:02:59.450Z,2.37
2023-05-14T20:05:27.912Z,2.53
2023-05-14T20:07:55.710Z,2.70
2023-05-14T20:10:23.672Z,2.30
2023-05-14T20:12:51.214Z,2.30
2023-05-14T20:15:18.492Z,2.10
2023-05-14T20:17:46.302Z,2.47
2023-05-14T20:20:14.344Z,2.30
2023-05-14T20:22:42.833Z,2.23
2023-05-14T20:25:10.517Z,2.90
2023-05-14T20:27:37.845Z,2.30
2023-05-14T20:30:05.493Z,2.97
2023-05-14T20:32:32.968Z,2.23
2023-05-14T20:35:02.243Z,2.27
2023-05-14T20:37:30.474Z,2.43
2023-05-14T20:39:58.139Z,2.57
2023-05-14T20:42:25.888Z,2.73
2023-05-14T20:44:56.107Z,2.97
2023-05-14T20:47:26.459Z,2.80
2023-05-14T20:49:53.839Z,2.60
2023-05-14T20:52:21.097Z,2.80
2023-05-14T20:54:49.035Z,2.90
2023-05-14T20:57:16.393Z,2.70
2023-05-14T20:59:43.748Z,2.50
2023-05-14T21:02:11.796Z,3.20
2023-05-14T21:04:39.462Z,2.70
2023-05-14T21:07:07.368Z,2.70
2023-05-14T21:09:34.755Z,2.80
2023-05-14T21:12:02.025Z,2.93
2023-05-14T21:14:29.228Z,2.50
2023-05-14T21:16:56.666Z,3.07
2023-05-14T21:19:24.141Z,3.13
2023-05-14T21:21:51.449Z,2.93
2023-05-14T21:24:19.236Z,2.80
2023-05-14T21:26:46.940Z,2.60
2023-05-14T21:29:14.239Z,2.70
2023-05-14T21:31:41.805Z,2.80
2023-05-14T21:34:09.203Z,3.00
2023-05-14T21:36:36.600Z,3.00
2023-05-14T21:39:04.259Z,3.03
2023-05-14T21:41:32.331Z,3.17
2023-05-14T21:43:59.588Z,3.10
2023-05-14T21:46:28.955Z,3.00
2023-05-14T21:48:56.956Z,2.80
2023-05-14T21:51:24.946Z,3.13
2023-05-14T21:53:52.267Z,3.07
2023-05-14T21:56:19.733Z,3.37
2023-05-14T21:58:46.992Z,2.87
2023-05-14T22:01:14.614Z,3.10
2023-05-14T22:03:41.979Z,3.10
2023-05-14T22:06:09.323Z,3.40
2023-05-14T22:08:36.784Z,3.20
2023-05-14T22:11:05.482Z,3.60
2023-05-14T22:13:34.961Z,3.40
2023-05-14T22:16:12.234Z,4.00
2023-05-14T22:18:41.676Z,3.23
2023-05-14T22:21:10.846Z,3.20
2023-05-14T22:23:38.042Z,3.80
2023-05-14T22:26:05.670Z,3.47
2023-05-14T22:28:32.907Z,3.73
2023-05-14T22:31:00.404Z,3.33
2023-05-14T22:33:27.816Z,3.77
2023-05-14T22:35:55.078Z,3.20
2023-05-14T22:38:22.307Z,3.67
2023-05-14T22:40:49.529Z,3.63
2023-05-14T22:43:16.871Z,3.67
2023-05-14T22:45:44.367Z,4.03
2023-05-14T22:48:11.613Z,3.50
2023-05-14T22:50:38.945Z,3.57
2023-05-14T22:53:06.662Z,3.47
2023-05-14T22:55:34.269Z,3.73
2023-05-14T22:58:01.666Z,3.43
2023-05-14T23:00:29.042Z,3.30
2023-05-14T23:02:56.477Z,3.67
2023-05-14T23:05:24.030Z,3.33
2023-05-14T23:07:51.430Z,3.33
2023-05-14T23:10:18.734Z,3.30
2023-05-14T23:12:45.941Z,3.53
2023-05-14T23:15:13.191Z,3.57
2023-05-14T23:17:40.665Z,3.43
2023-05-14T23:20:10.524Z,3.20
2023-05-14T23:22:37.813Z,3.47
2023-05-14T23:25:05.361Z,3.60
2023-05-14T23:27:32.761Z,2.70
2023-05-14T23:29:59.936Z,3.30
2023-05-14T23:32:27.462Z,3.63
2023-05-14T23:34:55.024Z,3.50
2023-05-14T23:37:22.240Z,3.30
2023-05-14T23:39:49.519Z,3.53
2023-05-14T23:42:16.887Z,3.40
2023-05-14T23:44:44.278Z,3.83
2023-05-14T23:47:12.323Z,3.40
2023-05-14T23:49:40.807Z,3.87
2023-05-14T23:52:08.294Z,3.97
2023-05-14T23:54:35.777Z,3.37
2023-05-14T23:57:04.478Z,3.70
2023-05-14T23:59:31.914Z,3.70
